Purlear, NC

2:07 AM EDT on September 05, 2015 (GMT -0400)
Ashe County | | Change Station
CLOSE
Current Station
Airport
Location: Jefferson,
Elevation: 3179 ft
Nearby Weather Stations

Elev 3179 ft 36.43 °N, 81.42 °W | Updated 12 minutes ago

Partly Cloudy
Partly Cloudy
61 °F
Feels Like 61 °F
N
0
Wind Variable Wind from North

Today
High -- | Low -- °F
--% Chance of Precip.
Yesterday
High -- | Low -- °F
Precip. -- in
7:00 AM 7:47 PM
Waning Gibbous, 52% visible
Pressure 30.23 in
Visibility 0.8 miles
Clouds Overcast 200 ft
Dew Point 61 °F
Humidity 100%
Rainfall 0.00 in
Snow Depth Not available.
UV 0 out of 12
Pollen 8.80 out of 12
Air Quality Not available.
Flu Activity Not available.
METAR KGEV 050555Z AUTO 00000KT 3/4SM BR OVC002 16/16 A3023 RMK AO2 60003 T01610161 10211 20161 402760161
Pressure 30.23 in
Visibility 0.8 miles
Clouds Overcast 200 ft
Dew Point 61 °F
Humidity 100%
Rainfall 0.00 in
Snow Depth Not available.
UV 0 out of 12
Pollen 8.80 out of 12
Air Quality Not available.
Flu Activity Not available.
METAR KGEV 050555Z AUTO 00000KT 3/4SM BR OVC002 16/16 A3023 RMK AO2 60003 T01610161 10211 20161 402760161

10-Day Weather Forecast

×

Almanac

Astronomy

Sep. 05, 2015 Rise Set
Actual Time
Civil Twilight
Nautical Twilight
Astronomical Twilight
Moon
Length of Visible Light
Length of Day
Tomorrow will be .
, % of the Moon is Illuminated

Today's Extremes

State Highs State Lows

Community

WunderPhotos

Upload Photos

1,852,431 photos uploaded!

WunderBlogs® & News

Nearby

Air Quality

  Air Quality AQ Index Pollutant
Not available.

Snow Depth

Station Depth Elevation

Earthquake Activity

City Distance Mag. Time & Date
Minimum magnitude displayed is 2.5.

Coastal Water Temperatures

Place Temperature

Stations

Nearby Weather Stations

Station Location Temp. Windchill Dew Point Humidity Wind Precip. Elev Updated Type